Time;durP1;ratioP1;P1;durP2;ratioP2;P2;SDS_P1;SDS_P2;PMS_P1;PMS_P2;Temp;Humidity;BMP_temperature;BMP_pressure;BME280_temperature;BME280_humidity;BME280_pressure;Samples;Min_cycle;Max_cycle;Signal;HPM_P1;HPM_P2
2023/07/18 00:01:27;;;;;;;14.15;3.55;;;;;;;-142.57;45.60;115900.28;6266103;23;20031;-85
2023/07/18 00:03:52;;;;;;;11.07;3.13;;;;;;;-142.57;46.00;115900.28;6236193;23;20017;-84
2023/07/18 00:06:18;;;;;;;8.30;3.15;;;;;;;-142.57;46.01;115900.28;6228514;23;20035;-85
2023/07/18 00:08:44;;;;;;;15.55;3.63;;;;;;;-142.57;46.67;115900.28;6253536;23;20028;-85
2023/07/18 00:11:10;;;;;;;10.45;3.53;;;;;;;-142.57;46.70;115900.28;6253651;23;20012;-84
2023/07/18 00:13:35;;;;;;;18.33;3.85;;;;;;;-142.57;46.61;115900.28;6251387;23;20034;-85
2023/07/18 00:16:01;;;;;;;14.00;3.45;;;;;;;-142.57;46.62;115900.28;6265201;23;20012;-84
2023/07/18 00:21:00;;;;;;;9.93;3.90;;;;;;;-142.57;47.24;115900.28;6241744;22;20013;-85
2023/07/18 00:23:30;;;;;;;12.60;3.83;;;;;;;-142.57;47.57;115900.28;6240786;23;20024;-89
2023/07/18 00:25:55;;;;;;;10.40;3.92;;;;;;;-142.57;47.29;115900.28;6190217;23;20020;-88
2023/07/18 00:28:24;;;;;;;11.63;3.70;;;;;;;-142.57;47.11;115900.28;6253060;22;20043;-86
2023/07/18 00:31:01;;;;;;;9.52;3.30;;;;;;;-142.57;47.47;115900.28;6198444;23;20020;-86
2023/07/18 00:33:28;;;;;;;11.68;3.60;;;;;;;-142.57;47.22;115900.28;6258739;23;20012;-85
2023/07/18 00:36:33;;;;;;;11.88;3.80;;;;;;;-142.57;48.07;115900.28;6267716;23;20076;-85
2023/07/18 00:39:05;;;;;;;15.35;3.40;;;;;;;-142.57;48.72;115900.28;6219955;23;20036;-86
2023/07/18 00:41:30;;;;;;;9.23;3.53;;;;;;;-142.57;48.53;115900.28;6266042;23;20012;-85
2023/07/18 00:44:05;;;;;;;11.50;3.72;;;;;;;-142.57;49.44;115900.28;6237997;23;20031;-87
2023/07/18 00:46:31;;;;;;;16.83;4.13;;;;;;;-142.57;50.17;115900.28;6229875;23;20012;-86
2023/07/18 00:48:57;;;;;;;11.35;3.47;;;;;;;-142.57;51.00;115900.28;6252982;23;20058;-89
2023/07/18 00:51:25;;;;;;;13.73;4.43;;;;;;;-142.57;51.02;115900.28;6255482;23;20293;-86
2023/07/18 00:53:53;;;;;;;15.32;4.00;;;;;;;-142.57;50.33;115900.28;6250647;23;20004;-87
2023/07/18 00:56:19;;;;;;;13.45;4.50;;;;;;;-142.57;51.18;115900.28;6256549;23;20036;-84
2023/07/18 00:58:48;;;;;;;10.48;4.00;;;;;;;-142.57;51.06;115900.28;6251610;23;20016;-86
2023/07/18 01:01:14;;;;;;;13.70;4.25;;;;;;;-142.57;51.15;115900.28;6223832;23;20012;-85
2023/07/18 01:03:39;;;;;;;13.77;4.00;;;;;;;-142.57;51.63;115900.28;6254791;23;20012;-85
2023/07/18 01:06:08;;;;;;;15.55;4.00;;;;;;;-142.57;51.39;115900.28;6223852;23;20502;-87
2023/07/18 01:08:35;;;;;;;14.93;3.90;;;;;;;-142.57;51.54;115900.28;6250732;23;20036;-88
2023/07/18 01:11:01;;;;;;;15.27;4.32;;;;;;;-142.57;51.07;115900.28;6198492;23;20004;-86
2023/07/18 01:13:27;;;;;;;13.77;3.67;;;;;;;-142.57;50.99;115900.28;6250907;23;20008;-85
2023/07/18 01:15:53;;;;;;;11.98;3.22;;;;;;;-142.57;50.90;115900.28;6250611;23;20058;-85
2023/07/18 01:18:18;;;;;;;10.10;3.58;;;;;;;-142.57;51.17;115900.28;6251917;23;20012;-86
2023/07/18 01:20:46;;;;;;;11.07;3.38;;;;;;;-142.57;50.73;115900.28;6252204;23;20299;-88
2023/07/18 01:23:12;;;;;;;7.35;3.33;;;;;;;-142.57;50.70;115900.28;6252208;23;20004;-86
2023/07/18 01:25:38;;;;;;;9.77;3.80;;;;;;;-142.57;51.30;115900.28;6251673;23;20458;-85
2023/07/18 01:28:06;;;;;;;13.65;3.85;;;;;;;-142.57;51.46;115900.28;6225451;23;20012;-84
2023/07/18 01:30:37;;;;;;;13.38;4.15;;;;;;;-142.57;52.03;115900.28;6252547;23;20043;-83
2023/07/18 01:33:03;;;;;;;12.50;4.22;;;;;;;-142.57;52.35;115900.28;6224588;23;20016;-85
2023/07/18 01:35:29;;;;;;;11.43;4.15;;;;;;;-142.57;52.86;115900.28;6225138;23;20008;-87
2023/07/18 01:37:56;;;;;;;10.93;4.10;;;;;;;-142.57;53.53;115900.28;6251701;23;20023;-88
2023/07/18 01:40:23;;;;;;;15.35;4.25;;;;;;;-142.57;53.91;115900.28;6252607;23;20016;-87
2023/07/18 01:42:52;;;;;;;11.90;4.05;;;;;;;-142.57;53.17;115900.28;6251873;23;20019;-86
2023/07/18 01:45:20;;;;;;;10.40;3.92;;;;;;;-142.57;53.30;115900.28;6225256;23;20110;-86
2023/07/18 01:47:47;;;;;;;12.50;3.78;;;;;;;-142.57;53.13;115900.28;6225358;23;20009;-85
2023/07/18 01:50:14;;;;;;;13.75;3.55;;;;;;;-142.57;53.34;115900.28;6226046;23;20443;-85
2023/07/18 01:52:46;;;;;;;16.90;3.92;;;;;;;-142.57;54.38;115900.28;6253245;23;20043;-84
2023/07/18 01:55:12;;;;;;;10.90;3.70;;;;;;;-142.57;53.81;115900.28;6208106;23;20019;-85
2023/07/18 01:57:37;;;;;;;14.27;4.35;;;;;;;-142.57;54.83;115900.28;6260622;23;20044;-85
2023/07/18 02:00:24;;;;;;;13.20;3.90;;;;;;;-142.57;55.41;115900.28;6229882;23;20003;-85
2023/07/18 02:02:53;;;;;;;19.30;3.75;;;;;;;-142.57;55.58;115900.28;6224312;23;20344;-85
2023/07/18 02:05:23;;;;;;;12.05;3.47;;;;;;;-142.57;55.42;115900.28;6250756;23;20086;-86
2023/07/18 02:07:48;;;;;;;15.80;3.95;;;;;;;-142.57;55.70;115900.28;6250213;23;20012;-84
2023/07/18 02:10:20;;;;;;;13.40;4.35;;;;;;;-142.57;55.88;115900.28;6223734;23;20399;-84
2023/07/18 02:12:47;;;;;;;13.63;4.50;;;;;;;-142.57;56.16;115900.28;6223377;23;20008;-84
2023/07/18 02:15:13;;;;;;;12.02;3.80;;;;;;;-142.57;55.85;115900.28;6226218;23;20007;-86
2023/07/18 02:17:40;;;;;;;10.02;3.60;;;;;;;-142.57;55.15;115900.28;6228197;23;20081;-86
2023/07/18 02:20:11;;;;;;;11.07;4.00;;;;;;;-142.57;55.77;115900.28;6227617;23;20154;-86
2023/07/18 02:22:43;;;;;;;9.85;3.80;;;;;;;-142.57;55.93;115900.28;6177651;23;20012;-86
2023/07/18 02:25:11;;;;;;;17.15;4.30;;;;;;;-142.57;57.09;115900.28;6252966;23;20325;-86
2023/07/18 02:27:41;;;;;;;8.02;3.83;;;;;;;-142.57;57.74;115900.28;6224306;23;20008;-86
2023/07/18 02:30:12;;;;;;;12.23;4.40;;;;;;;-142.57;57.56;115900.28;6250855;23;20076;-85
2023/07/18 02:32:44;;;;;;;17.40;4.35;;;;;;;-142.57;57.78;115900.28;6250968;23;20354;-86
2023/07/18 02:35:11;;;;;;;15.48;4.10;;;;;;;-142.57;57.67;115900.28;6224271;23;20288;-84
2023/07/18 02:37:37;;;;;;;12.75;3.88;;;;;;;-142.57;58.16;115900.28;6224185;23;20008;-86
2023/07/18 02:40:09;;;;;;;22.00;4.50;;;;;;;-142.57;58.33;115900.28;6251620;23;20008;-88
2023/07/18 02:42:36;;;;;;;13.07;4.40;;;;;;;-142.57;58.58;115900.28;6225513;23;20008;-85
2023/07/18 02:45:08;;;;;;;16.50;4.25;;;;;;;-142.57;58.75;115900.28;6224791;23;20343;-86
2023/07/18 02:47:34;;;;;;;12.18;3.63;;;;;;;-142.57;58.55;115900.28;6199446;23;20040;-87
2023/07/18 02:50:00;;;;;;;15.68;4.30;;;;;;;-142.57;58.79;115900.28;6251042;23;20012;-86
2023/07/18 02:52:26;;;;;;;16.15;4.30;;;;;;;-142.57;60.15;115900.28;6224027;23;20066;-85
2023/07/18 02:54:51;;;;;;;11.70;4.03;;;;;;;-142.57;61.01;115900.28;6224210;23;20005;-87
2023/07/18 02:57:17;;;;;;;11.10;4.35;;;;;;;-142.57;61.03;115900.28;6249965;23;20372;-86
2023/07/18 02:59:43;;;;;;;10.40;4.18;;;;;;;-142.57;61.13;115900.28;6222855;23;20012;-86
2023/07/18 03:02:09;;;;;;;8.13;3.90;;;;;;;-142.57;60.38;115900.28;6223316;23;20008;-86
2023/07/18 03:04:35;;;;;;;11.95;4.97;;;;;;;-142.57;60.25;115900.28;6255656;23;20058;-84
2023/07/18 03:07:03;;;;;;;12.82;4.13;;;;;;;-142.57;60.30;115900.28;6254156;23;20015;-85
2023/07/18 03:09:32;;;;;;;12.15;4.50;;;;;;;-142.57;60.11;115900.28;6254538;23;20008;-86
2023/07/18 03:11:58;;;;;;;12.23;4.38;;;;;;;-142.57;60.25;115900.28;6255833;23;20058;-85
2023/07/18 03:14:24;;;;;;;15.13;4.60;;;;;;;-142.57;59.95;115900.28;6249928;23;19995;-85
2023/07/18 03:16:50;;;;;;;11.05;3.90;;;;;;;-142.57;60.04;115900.28;6249890;23;20106;-86
2023/07/18 03:19:16;;;;;;;6.63;3.63;;;;;;;-142.57;59.63;115900.28;6250451;23;20004;-86
2023/07/18 03:21:43;;;;;;;10.68;4.50;;;;;;;-142.57;60.38;115900.28;6250347;23;20015;-85
2023/07/18 03:24:10;;;;;;;17.90;4.93;;;;;;;-142.57;60.84;115900.28;6223466;23;20301;-86
2023/07/18 03:26:38;;;;;;;10.75;3.83;;;;;;;-142.57;61.32;115900.28;6253654;23;20059;-85
2023/07/18 03:29:08;;;;;;;10.77;4.07;;;;;;;-142.57;61.30;115900.28;6254864;23;20020;-84
2023/07/18 03:31:34;;;;;;;11.23;4.57;;;;;;;-142.57;62.05;115900.28;6257290;23;20012;-86
2023/07/18 03:34:04;;;;;;;13.77;4.97;;;;;;;-142.57;63.23;115900.28;6226084;23;20019;-86
2023/07/18 03:36:30;;;;;;;13.95;4.85;;;;;;;-142.57;64.51;115900.28;6264465;23;20008;-85
2023/07/18 03:38:55;;;;;;;13.88;4.85;;;;;;;-142.57;64.45;115900.28;6241645;23;20004;-84
2023/07/18 03:41:24;;;;;;;14.20;4.85;;;;;;;-142.57;64.56;115900.28;6268381;23;20015;-84
2023/07/18 03:43:50;;;;;;;11.45;4.57;;;;;;;-142.57;64.12;115900.28;6259581;23;20004;-87
2023/07/18 03:46:15;;;;;;;12.45;4.18;;;;;;;-142.57;63.41;115900.28;6250606;23;20012;-87
2023/07/18 03:48:41;;;;;;;14.57;4.43;;;;;;;-142.57;63.61;115900.28;6249134;23;20035;-85
2023/07/18 03:51:06;;;;;;;12.45;4.47;;;;;;;-142.57;63.49;115900.28;6249472;23;20058;-85
2023/07/18 03:53:32;;;;;;;18.13;5.43;;;;;;;-142.57;63.14;115900.28;6249567;23;20012;-84
2023/07/18 03:56:05;;;;;;;14.02;4.60;;;;;;;-142.57;63.36;115900.28;6248721;23;20008;-86
2023/07/18 03:58:32;;;;;;;11.77;4.90;;;;;;;-142.57;63.85;115900.28;6221940;23;20431;-85
2023/07/18 04:00:58;;;;;;;10.27;5.05;;;;;;;-142.57;64.00;115900.28;6249719;23;20000;-86
2023/07/18 04:03:26;;;;;;;14.73;5.22;;;;;;;-142.57;65.18;115900.28;6249304;23;20020;-87
2023/07/18 04:05:52;;;;;;;13.48;4.95;;;;;;;-142.57;65.58;115900.28;6250162;23;20023;-85
2023/07/18 04:08:18;;;;;;;13.68;4.65;;;;;;;-142.57;65.27;115900.28;6249639;23;20023;-86
2023/07/18 04:10:44;;;;;;;10.27;4.55;;;;;;;-142.57;64.78;115900.28;6222893;23;20023;-84
2023/07/18 04:13:10;;;;;;;14.48;4.28;;;;;;;-142.57;65.16;115900.28;6250768;23;20019;-84
2023/07/18 04:15:35;;;;;;;10.95;4.70;;;;;;;-142.57;65.78;115900.28;6262409;23;20016;-87
2023/07/18 04:18:04;;;;;;;18.42;5.05;;;;;;;-142.57;65.50;115900.28;6237027;23;20008;-86
2023/07/18 04:20:30;;;;;;;12.43;5.20;;;;;;;-142.57;65.02;115900.28;6239100;23;20023;-86
2023/07/18 04:22:57;;;;;;;13.32;4.60;;;;;;;-142.57;66.19;115900.28;6271250;22;20059;-86
2023/07/18 04:25:32;;;;;;;12.93;4.50;;;;;;;-142.57;66.40;115900.28;6265960;23;20011;-87
2023/07/18 04:27:58;;;;;;;13.30;5.00;;;;;;;-142.57;66.64;115900.28;6234895;23;20015;-85
2023/07/18 04:30:25;;;;;;;15.90;4.97;;;;;;;-142.57;66.49;115900.28;6268935;23;20019;-85
2023/07/18 04:32:50;;;;;;;14.80;4.57;;;;;;;-142.57;67.25;115900.28;6242446;23;20008;-84
2023/07/18 04:35:18;;;;;;;16.60;5.32;;;;;;;-142.57;68.29;115900.28;6272465;23;20059;-86
2023/07/18 04:37:44;;;;;;;22.90;4.97;;;;;;;-142.57;68.24;115900.28;6272670;23;20016;-86
2023/07/18 04:40:11;;;;;;;14.75;5.72;;;;;;;-142.57;67.67;115900.28;6268324;23;20043;-81
2023/07/18 04:43:15;;;;;;;17.35;5.75;;;;;;;-142.57;68.12;115900.28;6221512;22;20015;-85
2023/07/18 04:45:45;;;;;;;15.32;5.22;;;;;;;-142.57;67.79;115900.28;6272577;22;20054;-83
2023/07/18 04:48:15;;;;;;;13.73;5.07;;;;;;;-142.57;69.95;115900.28;6267835;23;19996;-86
2023/07/18 04:50:42;;;;;;;11.57;5.28;;;;;;;-142.57;70.32;115900.28;6265599;23;20046;-83
2023/07/18 04:53:09;;;;;;;12.38;5.30;;;;;;;-142.57;72.02;115900.28;6264716;23;20008;-87
2023/07/18 04:55:35;;;;;;;13.00;5.22;;;;;;;-142.57;71.67;115900.28;6229984;23;20087;-85
2023/07/18 04:58:07;;;;;;;18.63;5.70;;;;;;;-142.57;71.61;115900.28;6257548;23;20427;-85
2023/07/18 05:00:34;;;;;;;16.58;6.15;;;;;;;-142.57;72.17;115900.28;6266030;23;20008;-85
2023/07/18 05:03:21;;;;;;;14.75;5.75;;;;;;;-142.57;73.89;115900.28;6257586;23;20004;-87
2023/07/18 05:05:47;;;;;;;12.82;6.50;;;;;;;-142.57;73.13;115900.28;6255123;23;20088;-85
2023/07/18 05:08:20;;;;;;;15.05;6.43;;;;;;;-142.57;74.36;115900.28;6255343;23;20447;-86
2023/07/18 05:10:47;;;;;;;26.40;7.28;;;;;;;-142.57;75.96;115900.28;6256553;23;20050;-88
2023/07/18 05:13:13;;;;;;;19.40;6.90;;;;;;;-142.57;76.47;115900.28;6254858;23;20011;-87
2023/07/18 05:15:45;;;;;;;22.92;7.32;;;;;;;-142.57;76.90;115900.28;6231110;23;20331;-89
2023/07/18 05:18:17;;;;;;;;;;;;;;;-142.57;78.35;115900.28;6228081;23;20396;-87
2023/07/18 05:20:42;;;;;;;23.35;6.72;;;;;;;-142.57;77.20;115900.28;6253747;23;19912;-87
2023/07/18 05:23:08;;;;;;;31.75;8.40;;;;;;;-142.57;76.66;115900.28;6257313;23;20100;-86
2023/07/18 05:25:34;;;;;;;22.60;7.13;;;;;;;-142.57;76.55;115900.28;6256278;23;20005;-88
2023/07/18 05:28:09;;;;;;;26.77;7.40;;;;;;;-142.57;76.10;115900.28;6254123;23;20019;-90
2023/07/18 05:30:35;;;;;;;30.25;8.25;;;;;;;-142.57;76.94;115900.28;6253106;23;20008;-88
2023/07/18 05:33:02;;;;;;;25.23;7.80;;;;;;;-142.57;77.38;115900.28;6240488;22;20026;-89
2023/07/18 05:35:34;;;;;;;22.27;9.07;;;;;;;-142.57;76.78;115900.28;6272790;22;20004;-92
2023/07/18 05:38:03;;;;;;;30.10;7.90;;;;;;;-142.57;77.02;115900.28;6244262;23;20003;-91
2023/07/18 05:40:34;;;;;;;31.38;8.60;;;;;;;-142.57;77.39;115900.28;6262327;23;20521;-89
2023/07/18 05:43:05;;;;;;;29.90;8.10;;;;;;;-142.57;76.28;115900.28;6261165;23;20081;-91
2023/07/18 05:45:33;;;;;;;35.85;8.57;;;;;;;-142.57;75.54;115900.28;6233742;23;20032;-91
2023/07/18 05:47:59;;;;;;;40.75;8.00;;;;;;;-142.57;74.17;115900.28;6232715;23;20020;-89
2023/07/18 05:50:25;;;;;;;30.60;8.25;;;;;;;-142.57;75.35;115900.28;6255960;23;20020;-86
2023/07/18 05:52:51;;;;;;;28.15;8.70;;;;;;;-142.57;74.79;115900.28;6202489;23;20032;-89
2023/07/18 05:55:22;;;;;;;19.65;8.13;;;;;;;-142.57;73.74;115900.28;6227288;23;20027;-89
2023/07/18 05:57:48;;;;;;;25.75;8.45;;;;;;;-142.57;71.79;115900.28;6255358;23;20447;-90
2023/07/18 06:00:14;;;;;;;21.52;9.10;;;;;;;-142.57;70.82;115900.28;6254374;23;20004;-89
2023/07/18 06:02:40;;;;;;;23.90;8.88;;;;;;;-142.57;70.96;115900.28;6255153;23;20453;-88
2023/07/18 06:05:07;;;;;;;17.88;8.93;;;;;;;-142.57;70.41;115900.28;6257067;23;20011;-88
2023/07/18 06:07:35;;;;;;;20.42;7.93;;;;;;;-142.57;69.08;115900.28;6256388;23;20114;-87
2023/07/18 06:10:07;;;;;;;23.17;7.45;;;;;;;-142.57;66.96;115900.28;6256336;23;20466;-86
2023/07/18 06:12:36;;;;;;;27.50;8.07;;;;;;;-142.57;65.85;115900.28;6226355;23;20439;-86
2023/07/18 06:15:03;;;;;;;20.63;7.32;;;;;;;-142.57;65.19;115900.28;6228224;23;20004;-86
2023/07/18 06:17:30;;;;;;;17.58;7.03;;;;;;;-142.57;64.13;115900.28;6255414;23;20064;-88
2023/07/18 06:19:56;;;;;;;29.45;9.00;;;;;;;-142.57;63.10;115900.28;6225400;23;20027;-88
2023/07/18 06:22:21;;;;;;;20.92;7.20;;;;;;;-142.57;61.07;115900.28;6252789;23;20020;-89
2023/07/18 06:24:47;;;;;;;19.95;7.70;;;;;;;-142.57;58.35;115900.28;6226898;23;20012;-87
2023/07/18 06:27:16;;;;;;;19.60;7.70;;;;;;;-142.57;58.65;115900.28;6227095;23;20058;-88
2023/07/18 06:29:41;;;;;;;18.02;6.68;;;;;;;-142.57;59.35;115900.28;6226506;23;20012;-88
2023/07/18 06:32:10;;;;;;;24.85;7.43;;;;;;;-142.57;56.61;115900.28;6254644;23;20012;-84
2023/07/18 06:34:40;;;;;;;20.38;6.22;;;;;;;-142.57;56.41;115900.28;6225184;23;20095;-89
2023/07/18 06:37:08;;;;;;;18.83;6.20;;;;;;;-142.57;53.83;115900.28;6254030;23;20013;-88
2023/07/18 06:39:35;;;;;;;22.95;6.53;;;;;;;-142.57;55.72;115900.28;6254677;23;20020;-87
2023/07/18 06:42:08;;;;;;;21.05;6.40;;;;;;;-142.57;53.26;115900.28;6254212;23;20386;-87
2023/07/18 06:44:34;;;;;;;20.67;6.13;;;;;;;-142.57;51.72;115900.28;6252655;23;20004;-85
2023/07/18 06:47:00;;;;;;;25.65;5.85;;;;;;;-142.57;51.07;115900.28;6225691;23;20016;-83
2023/07/18 06:49:26;;;;;;;16.00;5.88;;;;;;;-142.57;47.15;115900.28;6252840;23;20007;-88
2023/07/18 06:51:52;;;;;;;15.73;6.25;;;;;;;-142.57;48.99;115900.28;6256431;23;20105;-87
2023/07/18 06:54:18;;;;;;;17.27;6.10;;;;;;;-142.57;50.39;115900.28;6257190;23;20062;-85
2023/07/18 06:56:47;;;;;;;20.92;6.55;;;;;;;-142.57;49.64;115900.28;6230355;23;20015;-86
2023/07/18 06:59:21;;;;;;;17.52;5.35;;;;;;;-142.57;49.01;115900.28;6212881;23;20027;-86
2023/07/18 07:02:10;;;;;;;20.33;5.75;;;;;;;-142.57;50.12;115900.28;6265789;23;20019;-84
2023/07/18 07:04:39;;;;;;;20.20;6.13;;;;;;;-142.57;49.40;115900.28;6263366;23;20086;-84
2023/07/18 07:07:06;;;;;;;20.75;6.07;;;;;;;-142.57;48.55;115900.28;6256741;23;20008;-88
2023/07/18 07:09:34;;;;;;;22.95;6.47;;;;;;;-142.57;48.31;115900.28;6259165;23;20012;-83
2023/07/18 07:12:04;;;;;;;23.45;6.25;;;;;;;-142.57;46.98;115900.28;6211000;23;20032;-88
2023/07/18 07:14:31;;;;;;;23.25;6.88;;;;;;;-142.57;47.01;115900.28;6208272;23;20013;-88
2023/07/18 07:16:58;;;;;;;25.92;6.13;;;;;;;-142.57;46.26;115900.28;6253522;23;20356;-88
2023/07/18 07:19:25;;;;;;;18.65;6.28;;;;;;;-142.57;44.61;115900.28;6256790;23;20074;-88
2023/07/18 07:21:52;;;;;;;21.42;5.88;;;;;;;-142.57;45.05;115900.28;6253915;23;20862;-90
2023/07/18 07:24:17;;;;;;;22.48;6.15;;;;;;;-142.57;44.85;115900.28;6250767;23;20317;-85
2023/07/18 07:26:43;;;;;;;19.70;6.57;;;;;;;-142.57;45.92;115900.28;6250428;23;20068;-82
2023/07/18 07:29:09;;;;;;;16.33;6.10;;;;;;;-142.57;46.79;115900.28;6250769;23;20015;-83
2023/07/18 07:31:37;;;;;;;15.18;6.03;;;;;;;-142.57;46.75;115900.28;6223484;23;20008;-84
2023/07/18 07:34:03;;;;;;;15.43;5.78;;;;;;;-142.57;45.64;115900.28;6254027;23;20052;-91
2023/07/18 07:36:29;;;;;;;21.77;6.53;;;;;;;-142.57;43.73;115900.28;6232853;23;20042;-81
2023/07/18 07:38:54;;;;;;;21.92;5.40;;;;;;;-142.57;44.22;115900.28;6263250;23;20004;-80
2023/07/18 07:41:21;;;;;;;25.48;6.00;;;;;;;-142.57;42.56;115900.28;6264168;23;20010;-81
2023/07/18 07:43:46;;;;;;;22.05;6.13;;;;;;;-142.57;39.33;115900.28;6261012;23;20008;-86
2023/07/18 07:46:12;;;;;;;15.77;5.60;;;;;;;-142.57;41.43;115900.28;6249432;23;20019;-85
2023/07/18 07:48:38;;;;;;;15.88;6.28;;;;;;;-142.57;44.79;115900.28;6221523;23;20380;-86
2023/07/18 07:51:03;;;;;;;16.23;5.97;;;;;;;-142.57;41.67;115900.28;6248063;23;20014;-82
2023/07/18 07:53:30;;;;;;;12.07;4.95;;;;;;;-142.57;40.62;115900.28;6250575;23;20012;-83
2023/07/18 07:55:56;;;;;;;17.20;5.18;;;;;;;-142.57;41.53;115900.28;6250468;23;20008;-80
2023/07/18 07:58:22;;;;;;;17.92;5.47;;;;;;;-142.57;39.89;115900.28;6253761;23;20070;-79
2023/07/18 08:00:47;;;;;;;15.48;4.97;;;;;;;-142.57;40.18;115900.28;6251180;23;20382;-88
2023/07/18 08:03:13;;;;;;;24.13;5.30;;;;;;;-142.57;43.54;115900.28;6251034;23;20399;-89
2023/07/18 08:05:41;;;;;;;14.95;6.05;;;;;;;-142.57;47.37;115900.28;6224412;23;20039;-80
2023/07/18 08:08:08;;;;;;;18.60;6.05;;;;;;;-142.57;44.68;115900.28;6227711;23;20015;-81
2023/07/18 08:10:40;;;;;;;12.40;5.03;;;;;;;-142.57;40.99;115900.28;6249924;23;20012;-79
2023/07/18 08:13:06;;;;;;;15.45;5.63;;;;;;;-142.57;41.73;115900.28;6253852;23;20004;-79
2023/07/18 08:15:40;;;;;;;13.13;5.75;;;;;;;-142.57;42.21;115900.28;6257690;23;20016;-91
2023/07/18 08:18:05;;;;;;;29.30;5.47;;;;;;;-142.57;41.44;115900.28;6253006;23;20012;-81
2023/07/18 08:20:32;;;;;;;17.63;5.00;;;;;;;-142.57;42.21;115900.28;6255973;23;20015;-77
2023/07/18 08:22:58;;;;;;;17.70;6.18;;;;;;;-142.57;40.72;115900.28;6257633;23;20070;-85
2023/07/18 08:25:24;;;;;;;15.98;5.50;;;;;;;-142.57;40.61;115900.28;6254091;23;20016;-80
2023/07/18 08:27:50;;;;;;;15.93;5.25;;;;;;;-142.57;39.05;115900.28;6177347;23;20016;-84
2023/07/18 08:30:19;;;;;;;17.60;5.07;;;;;;;-142.57;37.89;115900.28;6200571;23;20022;-81
2023/07/18 08:32:46;;;;;;;16.23;4.70;;;;;;;-142.57;38.85;115900.28;6253763;23;20012;-79
2023/07/18 08:35:12;;;;;;;17.15;4.97;;;;;;;-142.57;39.08;115900.28;6251553;23;20019;-80
2023/07/18 08:37:39;;;;;;;17.02;5.85;;;;;;;-142.57;39.97;115900.28;6251612;23;20030;-85
2023/07/18 08:40:06;;;;;;;18.38;5.53;;;;;;;-142.57;39.15;115900.28;6221692;23;20016;-84
2023/07/18 08:42:33;;;;;;;19.50;5.80;;;;;;;-142.57;40.28;115900.28;6220637;23;20036;-81
2023/07/18 08:45:00;;;;;;;19.50;5.75;;;;;;;-142.57;39.73;115900.28;6222960;23;20010;-82
2023/07/18 08:47:26;;;;;;;20.27;5.70;;;;;;;-142.57;39.62;115900.28;6249426;23;20024;-81
2023/07/18 08:49:52;;;;;;;21.48;5.80;;;;;;;-142.57;40.17;115900.28;6250161;23;20016;-85
2023/07/18 08:52:18;;;;;;;14.43;5.75;;;;;;;-142.57;41.33;115900.28;6252306;23;20083;-88
2023/07/18 08:54:47;;;;;;;14.05;5.30;;;;;;;-142.57;41.67;115900.28;6250118;23;20000;-80
2023/07/18 08:57:13;;;;;;;16.70;5.00;;;;;;;-142.57;39.74;115900.28;6250654;23;20012;-81
2023/07/18 08:59:53;;;;;;;15.65;4.80;;;;;;;-142.57;38.51;115900.28;6249810;23;20494;-84
2023/07/18 09:02:19;;;;;;;15.90;5.20;;;;;;;-142.57;40.11;115900.28;6255181;23;20012;-85
2023/07/18 09:07:35;;;;;;;18.48;5.20;;;;;;;-142.57;37.56;115900.28;6253820;22;20024;-79
2023/07/18 09:10:21;;;;;;;14.75;5.40;;;;;;;-142.57;36.48;115900.28;6234161;23;20032;-85
2023/07/18 09:12:53;;;;;;;14.25;4.72;;;;;;;-142.57;34.97;115900.28;6256477;23;20012;-83
2023/07/18 09:15:39;;;;;;;;;;;;;;;-142.57;34.25;115900.28;6230668;23;20081;-83
2023/07/18 09:18:08;;;;;;;16.48;5.53;;;;;;;-142.57;33.19;115900.28;6226963;23;19911;-86
2023/07/18 09:20:34;;;;;;;22.55;5.60;;;;;;;-142.57;36.47;115900.28;6270800;22;19999;-81
2023/07/18 09:23:04;;;;;;;19.38;5.10;;;;;;;-142.57;38.40;115900.28;6244763;23;20016;-82
2023/07/18 09:25:30;;;;;;;15.82;4.95;;;;;;;-142.57;38.97;115900.28;6270174;22;20034;-81
2023/07/18 09:27:57;;;;;;;14.85;5.13;;;;;;;-142.57;39.11;115900.28;6269401;23;20004;-82
2023/07/18 09:30:27;;;;;;;13.05;5.03;;;;;;;-142.57;37.15;115900.28;6270508;22;20016;-80
2023/07/18 09:32:53;;;;;;;19.60;5.33;;;;;;;-142.57;38.77;115900.28;6239523;23;20329;-80
2023/07/18 09:35:19;;;;;;;19.77;5.72;;;;;;;-142.57;38.47;115900.28;6263911;23;20111;-82
2023/07/18 09:37:49;;;;;;;15.80;5.03;;;;;;;-142.57;38.63;115900.28;6240377;23;20027;-81
2023/07/18 09:40:37;;;;;;;21.92;5.68;;;;;;;-142.57;37.72;115900.28;6268469;23;20000;-82
2023/07/18 09:43:03;;;;;;;22.08;4.93;;;;;;;-142.57;37.62;115900.28;6261976;23;20036;-81
2023/07/18 09:45:33;;;;;;;19.77;5.35;;;;;;;-142.57;38.49;115900.28;6254895;23;20061;-82
2023/07/18 09:48:00;;;;;;;19.48;5.70;;;;;;;-142.57;38.90;115900.28;6260707;23;20020;-84
2023/07/18 09:50:40;;;;;;;20.73;5.47;;;;;;;-142.57;37.54;115900.28;6261289;23;20004;-81
2023/07/18 09:53:12;;;;;;;16.98;5.20;;;;;;;-142.57;36.11;115900.28;6263222;23;20018;-80
2023/07/18 09:55:38;;;;;;;18.13;4.78;;;;;;;-142.57;35.60;115900.28;6264110;23;20015;-82
2023/07/18 09:58:06;;;;;;;19.30;5.72;;;;;;;-142.57;35.81;115900.28;6235838;23;20012;-82
2023/07/18 10:00:35;;;;;;;13.80;5.15;;;;;;;-142.57;36.64;115900.28;6264227;23;20066;-79
2023/07/18 10:03:03;;;;;;;21.52;5.30;;;;;;;-142.57;36.34;115900.28;6265661;23;20076;-79
2023/07/18 10:05:33;;;;;;;14.40;4.55;;;;;;;-142.57;36.33;115900.28;6214148;23;20043;-81
2023/07/18 10:08:09;;;;;;;16.40;5.22;;;;;;;-142.57;36.84;115900.28;6266098;23;20016;-83
2023/07/18 10:10:37;;;;;;;20.30;5.72;;;;;;;-142.57;36.01;115900.28;6230609;23;20317;-85
2023/07/18 10:13:03;;;;;;;17.73;5.25;;;;;;;-142.57;36.20;115900.28;6228137;23;20023;-83
2023/07/18 10:15:29;;;;;;;15.27;5.35;;;;;;;-142.57;35.99;115900.28;6264974;23;20019;-84
2023/07/18 10:18:14;;;;;;;10.70;5.03;;;;;;;-142.57;35.64;115900.28;6265530;23;20023;-82
2023/07/18 10:20:56;;;;;;;21.20;5.18;;;;;;;-142.57;35.69;115900.28;6260445;23;20015;-85
2023/07/18 10:23:38;;;;;;;;;;;;;;;-142.57;36.87;115900.28;6269222;23;20015;-83
2023/07/18 10:26:05;;;;;;;15.20;5.07;;;;;;;-142.57;37.13;115900.28;6269013;23;19959;-83
2023/07/18 10:28:41;;;;;;;17.67;5.47;;;;;;;-142.57;36.00;115900.28;6270273;23;20035;-84
2023/07/18 10:31:08;;;;;;;15.98;5.43;;;;;;;-142.57;37.79;115900.28;6242688;23;20080;-84
2023/07/18 10:33:33;;;;;;;21.58;5.78;;;;;;;-142.57;37.29;115900.28;6268343;23;20042;-85
2023/07/18 10:35:59;;;;;;;17.50;5.20;;;;;;;-142.57;37.29;115900.28;6242539;23;19997;-85
2023/07/18 10:38:35;;;;;;;22.90;5.90;;;;;;;-142.57;36.66;115900.28;6269226;23;20012;-82
2023/07/18 10:41:01;;;;;;;18.10;5.47;;;;;;;-142.57;37.11;115900.28;6244338;23;20027;-85
2023/07/18 10:43:31;;;;;;;16.38;5.80;;;;;;;-142.57;37.39;115900.28;6271075;23;20015;-83
2023/07/18 10:46:06;;;;;;;18.92;5.40;;;;;;;-142.57;36.48;115900.28;6271498;23;20005;-83
2023/07/18 10:48:35;;;;;;;15.45;5.35;;;;;;;-142.57;34.87;115900.28;6272238;23;20013;-87
2023/07/18 10:51:00;;;;;;;22.45;5.13;;;;;;;-142.57;34.32;115900.28;6265415;23;20008;-89
2023/07/18 10:53:28;;;;;;;12.35;4.68;;;;;;;-142.57;34.55;115900.28;6252685;23;20436;-90
2023/07/18 10:55:56;;;;;;;16.08;4.65;;;;;;;-142.57;33.94;115900.28;6251516;23;20015;-85
2023/07/18 10:58:21;;;;;;;15.93;5.45;;;;;;;-142.57;35.55;115900.28;6256077;23;20016;-81
2023/07/18 11:00:48;;;;;;;11.38;5.13;;;;;;;-142.57;35.65;115900.28;6257970;23;20008;-88
2023/07/18 11:03:31;;;;;;;16.38;5.20;;;;;;;-142.57;35.07;115900.28;6235670;23;20004;-82
2023/07/18 11:05:56;;;;;;;16.70;4.95;;;;;;;-142.57;34.34;115900.28;6251211;23;20046;-92
2023/07/18 11:08:27;;;;;;;22.48;5.53;;;;;;;-142.57;34.71;115900.28;6228247;23;20008;-88
2023/07/18 11:11:00;;;;;;;21.88;5.60;;;;;;;-142.57;34.53;115900.28;6229994;23;20043;-85
2023/07/18 11:13:33;;;;;;;14.15;4.80;;;;;;;-142.57;33.95;115900.28;6259522;23;20004;-89